createdAt,value
2017-09-09T00:01:16.583Z,98896.24
2017-09-09T00:03:44.161Z,98890.91
2017-09-09T00:06:11.624Z,98889.02
2017-09-09T00:08:39.081Z,98886.02
2017-09-09T00:11:06.562Z,98878.45
2017-09-09T00:13:34.003Z,98874.06
2017-09-09T00:16:01.463Z,98869.51
2017-09-09T00:18:29.028Z,98867.45
2017-09-09T00:20:56.519Z,98863.34
2017-09-09T00:23:23.961Z,98855.40
2017-09-09T00:25:51.783Z,98856.45
2017-09-09T00:28:19.343Z,98849.66
2017-09-09T00:30:46.832Z,98843.43
2017-09-09T00:33:14.274Z,98839.71
2017-09-09T00:35:41.757Z,98829.74
2017-09-09T00:38:09.255Z,98835.80
2017-09-09T00:40:36.817Z,98829.45
2017-09-09T00:43:04.261Z,98824.27
2017-09-09T00:45:31.737Z,98827.10
2017-09-09T00:47:59.257Z,98818.41
2017-09-09T00:50:26.719Z,98812.29
2017-09-09T00:52:54.169Z,98805.69
2017-09-09T00:55:21.697Z,98805.36
2017-09-09T00:57:49.140Z,98808.36
2017-09-09T01:00:16.615Z,98795.95
2017-09-09T01:02:44.059Z,98792.80
2017-09-09T01:05:11.599Z,98792.91
2017-09-09T01:07:39.047Z,98787.75
2017-09-09T01:10:06.503Z,98782.41
2017-09-09T01:12:33.986Z,98782.62
2017-09-09T01:15:01.437Z,98783.06
2017-09-09T01:17:29.336Z,98772.69
2017-09-09T01:19:56.787Z,98775.67
2017-09-09T01:22:24.262Z,98760.81
2017-09-09T01:24:51.717Z,98754.78
2017-09-09T01:27:19.240Z,98758.30
2017-09-09T01:29:46.768Z,98758.02
2017-09-09T01:32:14.245Z,98765.08
2017-09-09T01:34:41.704Z,98761.62
2017-09-09T01:37:09.199Z,98759.28
2017-09-09T01:39:36.659Z,98757.22
2017-09-09T01:42:04.175Z,98751.00
2017-09-09T01:44:31.619Z,98744.39
2017-09-09T01:46:59.093Z,98731.44
2017-09-09T01:49:26.540Z,98735.89
2017-09-09T01:51:54.021Z,98737.00
2017-09-09T01:54:21.499Z,98730.27
2017-09-09T01:56:48.991Z,98724.06
2017-09-09T01:59:16.469Z,98722.57
2017-09-09T02:01:43.935Z,98718.95
2017-09-09T02:04:11.466Z,98715.55
2017-09-09T02:06:38.956Z,98700.43
2017-09-09T02:09:06.488Z,98691.53
2017-09-09T02:11:33.945Z,98686.23
2017-09-09T02:14:01.403Z,98678.88
2017-09-09T02:16:28.966Z,98682.59
2017-09-09T02:18:56.522Z,98679.41
2017-09-09T02:21:24.425Z,98687.41
2017-09-09T02:23:51.904Z,98688.44
2017-09-09T02:26:19.352Z,98685.75
2017-09-09T02:28:46.824Z,98686.55
2017-09-09T02:31:14.294Z,98686.70
2017-09-09T02:33:41.764Z,98676.67
2017-09-09T02:36:09.224Z,98664.73
2017-09-09T02:38:36.696Z,98664.06
2017-09-09T02:41:04.145Z,98654.86
2017-09-09T02:43:31.649Z,98655.41
2017-09-09T02:45:59.149Z,98646.72
2017-09-09T02:48:26.707Z,98638.22
2017-09-09T02:50:54.196Z,98634.23
2017-09-09T02:53:21.686Z,98633.74
2017-09-09T02:55:49.131Z,98639.78
2017-09-09T02:58:16.636Z,98630.28
2017-09-09T03:00:44.075Z,98631.84
2017-09-09T03:03:11.547Z,98636.08
2017-09-09T03:05:39.117Z,98632.13
2017-09-09T03:08:06.688Z,98638.64
2017-09-09T03:10:34.176Z,98633.68
2017-09-09T03:13:01.948Z,98633.81
2017-09-09T03:15:29.449Z,98637.09
2017-09-09T03:17:57.001Z,98620.16
2017-09-09T03:20:24.569Z,98613.28
2017-09-09T03:22:52.028Z,98617.69
2017-09-09T03:25:19.505Z,98610.45
2017-09-09T03:27:46.953Z,98610.23
2017-09-09T03:30:14.425Z,98604.92
2017-09-09T03:32:41.876Z,98602.86
2017-09-09T03:35:09.340Z,98605.09
2017-09-09T03:37:36.788Z,98602.80
2017-09-09T03:40:04.261Z,98596.72
2017-09-09T03:42:31.703Z,98598.98
2017-09-09T03:44:59.191Z,98598.00
2017-09-09T03:47:26.635Z,98593.47
2017-09-09T03:49:54.105Z,98593.25
2017-09-09T03:52:21.590Z,98598.49
2017-09-09T03:54:49.065Z,98601.54
2017-09-09T03:57:16.636Z,98592.98
2017-09-09T03:59:44.155Z,98597.23
2017-09-09T04:02:11.599Z,98599.48
2017-09-09T04:04:39.076Z,98602.73
2017-09-09T04:07:06.550Z,98590.39
2017-09-09T04:09:34.100Z,98590.73
2017-09-09T04:12:01.563Z,98595.24
2017-09-09T04:14:29.032Z,98597.56
2017-09-09T04:16:56.509Z,98588.05
2017-09-09T04:19:23.957Z,98588.73
2017-09-09T04:21:51.481Z,98579.50
2017-09-09T04:24:18.941Z,98576.36
2017-09-09T04:26:46.414Z,98564.41
2017-09-09T04:29:13.958Z,98565.69
2017-09-09T04:31:41.708Z,98560.45
2017-09-09T04:34:09.213Z,98560.20
2017-09-09T04:36:36.709Z,98564.32
2017-09-09T04:39:04.158Z,98576.38
2017-09-09T04:41:31.640Z,98561.72
2017-09-09T04:43:59.127Z,98564.00
2017-09-09T04:46:26.605Z,98563.45
2017-09-09T04:48:54.085Z,98568.75
2017-09-09T04:51:21.566Z,98570.22
2017-09-09T04:53:49.016Z,98558.63
2017-09-09T04:56:16.490Z,98550.61
2017-09-09T04:58:44.049Z,98553.76
2017-09-09T05:01:11.617Z,98544.22
2017-09-09T05:03:39.087Z,98549.56
2017-09-09T05:06:06.567Z,98552.61
2017-09-09T05:08:34.029Z,98554.51
2017-09-09T05:11:01.520Z,98546.88
2017-09-09T05:13:29.004Z,98546.78
2017-09-09T05:15:56.556Z,98544.39
2017-09-09T05:18:24.031Z,98551.30
2017-09-09T05:20:51.474Z,98561.48
2017-09-09T05:23:19.025Z,98569.51
2017-09-09T05:25:46.595Z,98571.86
2017-09-09T05:28:14.114Z,98572.22
2017-09-09T05:30:41.614Z,98565.34
2017-09-09T05:33:09.080Z,98565.39
2017-09-09T05:35:36.558Z,98574.44
2017-09-09T05:38:04.047Z,98579.53
2017-09-09T05:40:31.536Z,98582.63
2017-09-09T05:42:59.075Z,98589.10
2017-09-09T05:45:26.553Z,98598.84
2017-09-09T05:47:54.028Z,98582.32
2017-09-09T05:50:21.490Z,98579.00
2017-09-09T05:52:48.956Z,98587.88
2017-09-09T05:55:16.409Z,98584.70
2017-09-09T05:57:43.901Z,98584.11
2017-09-09T06:00:11.386Z,98589.28
2017-09-09T06:02:38.940Z,98593.84
2017-09-09T06:05:06.383Z,98597.86
2017-09-09T06:07:33.852Z,98599.63
2017-09-09T06:10:01.321Z,98595.90
2017-09-09T06:12:28.775Z,98611.10
2017-09-09T06:14:56.239Z,98604.30
2017-09-09T06:17:23.688Z,98601.32
2017-09-09T06:19:51.196Z,98614.27
2017-09-09T06:22:18.653Z,98615.62
2017-09-09T06:24:46.134Z,98617.93
2017-09-09T06:27:13.589Z,98632.62
2017-09-09T06:29:41.063Z,98614.58
2017-09-09T06:32:08.533Z,98618.49
2017-09-09T06:34:36.074Z,98624.27
2017-09-09T06:37:03.519Z,98623.31
2017-09-09T06:39:31.006Z,98639.48
2017-09-09T06:41:58.501Z,98653.66
2017-09-09T06:44:25.985Z,98653.67
2017-09-09T06:46:53.453Z,98660.11
2017-09-09T06:49:20.920Z,98664.63
2017-09-09T06:51:48.368Z,98661.39
2017-09-09T06:54:15.845Z,98651.09
2017-09-09T06:56:43.308Z,98664.14
2017-09-09T06:59:10.781Z,98664.12
2017-09-09T07:01:38.223Z,98661.29
2017-09-09T07:04:05.706Z,98664.08
2017-09-09T07:06:33.147Z,98668.09
2017-09-09T07:09:00.653Z,98661.31
2017-09-09T07:11:28.101Z,98670.00
2017-09-09T07:13:55.549Z,98678.23
2017-09-09T07:16:23.011Z,98684.92
2017-09-09T07:18:50.500Z,98695.16
2017-09-09T07:21:18.514Z,98700.64
2017-09-09T07:23:46.004Z,98708.61
2017-09-09T07:26:13.489Z,98707.44
2017-09-09T07:28:40.940Z,98713.36
2017-09-09T07:31:08.403Z,98723.70
2017-09-09T07:33:35.865Z,98718.86
2017-09-09T07:36:03.334Z,98714.89
2017-09-09T07:38:30.771Z,98706.80
2017-09-09T07:40:58.244Z,98715.81
2017-09-09T07:43:25.709Z,98720.27
2017-09-09T07:45:53.200Z,98717.09
2017-09-09T07:48:20.729Z,98721.97
2017-09-09T07:50:48.202Z,98737.70
2017-09-09T07:53:15.704Z,98741.75
2017-09-09T07:55:43.267Z,98748.67
2017-09-09T07:58:10.720Z,98741.28
2017-09-09T08:00:38.279Z,98744.03
2017-09-09T08:03:05.769Z,98751.70
2017-09-09T08:05:33.305Z,98755.64
2017-09-09T08:08:00.770Z,98751.73
2017-09-09T08:10:28.239Z,98761.64
2017-09-09T08:12:55.970Z,98758.66
2017-09-09T08:15:23.420Z,98756.06
2017-09-09T08:17:50.901Z,98754.62
2017-09-09T08:20:18.347Z,98771.21
2017-09-09T08:22:45.844Z,98766.72
2017-09-09T08:25:13.388Z,98758.69
2017-09-09T08:27:40.858Z,98754.00
2017-09-09T08:30:08.380Z,98757.19
2017-09-09T08:32:35.945Z,98756.00
2017-09-09T08:35:03.497Z,98761.45
2017-09-09T08:37:30.973Z,98763.22
2017-09-09T08:39:58.421Z,98759.24
2017-09-09T08:42:25.895Z,98765.38
2017-09-09T08:44:53.399Z,98779.18
2017-09-09T08:47:21.074Z,98789.53
2017-09-09T08:49:49.003Z,98790.02
2017-09-09T08:52:16.520Z,98791.31
2017-09-09T08:54:43.970Z,98797.94
2017-09-09T08:57:11.537Z,98810.45
2017-09-09T08:59:39.105Z,98813.19
2017-09-09T09:02:06.672Z,98817.21
2017-09-09T09:04:34.124Z,98809.13
2017-09-09T09:07:01.670Z,98802.61
2017-09-09T09:09:29.142Z,98812.74
2017-09-09T09:11:56.620Z,98820.70
2017-09-09T09:14:24.378Z,98815.10
2017-09-09T09:16:51.865Z,98828.08
2017-09-09T09:19:19.398Z,98826.95
2017-09-09T09:21:46.861Z,98829.06
2017-09-09T09:24:14.328Z,98832.52
2017-09-09T09:26:41.932Z,98844.83
2017-09-09T09:29:09.480Z,98838.92
2017-09-09T09:31:36.924Z,98834.89
2017-09-09T09:34:04.388Z,98840.11
2017-09-09T09:36:31.858Z,98836.30
2017-09-09T09:38:59.331Z,98838.95
2017-09-09T09:41:26.870Z,98840.63
2017-09-09T09:43:54.352Z,98836.52
2017-09-09T09:46:21.871Z,98832.66
2017-09-09T09:48:49.356Z,98832.20
2017-09-09T09:51:16.824Z,98832.34
2017-09-09T09:53:44.356Z,98821.65
2017-09-09T09:56:11.917Z,98832.02
2017-09-09T09:58:39.396Z,98823.45
2017-09-09T10:01:06.926Z,98824.71
2017-09-09T10:03:34.485Z,98837.11
2017-09-09T10:06:01.961Z,98835.13
2017-09-09T10:08:29.500Z,98826.13
2017-09-09T10:10:56.986Z,98818.90
2017-09-09T10:13:24.449Z,98827.67
2017-09-09T10:15:51.928Z,98832.81
2017-09-09T10:18:19.380Z,98829.53
2017-09-09T10:20:46.862Z,98833.02
2017-09-09T10:23:14.331Z,98845.13
2017-09-09T10:25:57.468Z,98834.56
2017-09-09T10:28:24.925Z,98832.91
2017-09-09T10:30:52.454Z,98836.28
2017-09-09T10:33:19.910Z,98836.20
2017-09-09T10:35:47.401Z,98830.46
2017-09-09T10:38:14.851Z,98844.91
2017-09-09T10:40:42.401Z,98840.66
2017-09-09T10:43:09.852Z,98836.61
2017-09-09T10:45:37.441Z,98825.70
2017-09-09T10:48:04.893Z,98818.03
2017-09-09T10:50:32.440Z,98811.08
2017-09-09T10:52:59.888Z,98813.87
2017-09-09T10:55:27.369Z,98809.00
2017-09-09T10:57:54.825Z,98808.23
2017-09-09T11:00:22.282Z,98803.75
2017-09-09T11:02:49.810Z,98810.06
2017-09-09T11:05:17.257Z,98813.69
2017-09-09T11:07:44.740Z,98817.11
2017-09-09T11:10:12.296Z,98818.04
2017-09-09T11:12:39.856Z,98809.85
2017-09-09T11:15:07.414Z,98817.30
2017-09-09T11:17:34.907Z,98810.00
2017-09-09T11:20:02.356Z,98804.34
2017-09-09T11:22:29.825Z,98812.64
2017-09-09T11:27:25.475Z,98807.44
2017-09-09T11:29:52.916Z,98805.53
2017-09-09T11:32:20.379Z,98804.70
2017-09-09T11:34:47.833Z,98813.00
2017-09-09T11:37:15.319Z,98815.93
2017-09-09T11:39:42.809Z,98810.25
2017-09-09T11:42:10.370Z,98821.06
2017-09-09T11:44:37.825Z,98808.41
2017-09-09T11:47:05.401Z,98824.33
2017-09-09T11:49:32.890Z,98813.74
2017-09-09T11:52:00.359Z,98802.79
2017-09-09T11:54:27.880Z,98806.12
2017-09-09T11:56:55.343Z,98813.29
2017-09-09T11:59:22.849Z,98807.25
2017-09-09T12:01:50.577Z,98807.17
2017-09-09T12:04:18.080Z,98803.56
2017-09-09T12:06:45.562Z,98814.80
2017-09-09T12:09:13.096Z,98814.11
2017-09-09T12:11:40.585Z,98817.80
2017-09-09T12:14:08.061Z,98810.75
2017-09-09T12:16:35.511Z,98819.72
2017-09-09T12:19:03.034Z,98818.66
2017-09-09T12:21:30.490Z,98808.73
2017-09-09T12:23:57.978Z,98805.59
2017-09-09T12:26:25.442Z,98805.55
2017-09-09T12:28:52.933Z,98806.27
2017-09-09T12:31:20.393Z,98812.91
2017-09-09T12:33:47.876Z,98813.31
2017-09-09T12:36:15.334Z,98807.55
2017-09-09T12:38:42.795Z,98802.70
2017-09-09T12:41:10.249Z,98809.80
2017-09-09T12:43:37.741Z,98802.22
2017-09-09T12:46:05.186Z,98808.99
2017-09-09T12:48:32.689Z,98811.47
2017-09-09T12:51:00.137Z,98812.36
2017-09-09T12:53:27.607Z,98806.73
2017-09-09T12:55:55.056Z,98801.27
2017-09-09T12:58:22.586Z,98805.83
2017-09-09T13:00:50.025Z,98798.08
2017-09-09T13:03:17.565Z,98795.69
2017-09-09T13:05:45.099Z,98800.13
2017-09-09T13:08:12.544Z,98803.20
2017-09-09T13:10:40.019Z,98805.34
2017-09-09T13:13:07.477Z,98799.84
2017-09-09T13:15:34.957Z,98801.67
2017-09-09T13:18:02.428Z,98793.41
2017-09-09T13:20:29.917Z,98798.81
2017-09-09T13:22:57.367Z,98804.48
2017-09-09T13:25:24.861Z,98800.84
2017-09-09T13:27:52.445Z,98805.19
2017-09-09T13:30:19.911Z,98800.41
2017-09-09T13:32:47.443Z,98800.84
2017-09-09T13:35:14.922Z,98800.90
2017-09-09T13:37:42.443Z,98799.08
2017-09-09T13:40:10.002Z,98796.30
2017-09-09T13:42:37.469Z,98795.95
2017-09-09T13:45:05.038Z,98806.42
2017-09-09T13:47:32.494Z,98807.68
2017-09-09T13:49:59.973Z,98809.38
2017-09-09T13:52:27.440Z,98813.20
2017-09-09T13:54:54.898Z,98810.52
2017-09-09T13:57:22.335Z,98806.73
2017-09-09T13:59:50.540Z,98799.73
2017-09-09T14:02:18.049Z,98813.31
2017-09-09T14:04:45.524Z,98820.57
2017-09-09T14:07:13.057Z,98817.66
2017-09-09T14:09:40.612Z,98810.70
2017-09-09T14:12:08.089Z,98808.74
2017-09-09T14:14:35.547Z,98813.22
2017-09-09T14:17:03.008Z,98819.70
2017-09-09T14:19:30.449Z,98814.59
2017-09-09T14:21:57.971Z,98819.10
2017-09-09T14:24:25.458Z,98808.75
2017-09-09T14:26:52.932Z,98810.52
2017-09-09T14:29:20.467Z,98809.88
2017-09-09T14:31:47.927Z,98813.47
2017-09-09T14:34:15.372Z,98819.95
2017-09-09T14:36:42.850Z,98821.70
2017-09-09T14:39:10.308Z,98822.77
2017-09-09T14:41:38.024Z,98826.34
2017-09-09T14:44:05.532Z,98839.91
2017-09-09T14:46:33.054Z,98833.16
2017-09-09T14:49:00.499Z,98836.73
2017-09-09T14:51:27.959Z,98834.00
2017-09-09T14:53:55.444Z,98830.97
2017-09-09T14:56:23.000Z,98830.22
2017-09-09T14:58:50.443Z,98828.69
2017-09-09T15:01:17.920Z,98832.09
2017-09-09T15:03:45.384Z,98823.09
2017-09-09T15:06:12.923Z,98829.27
2017-09-09T15:08:40.400Z,98824.23
2017-09-09T15:11:07.853Z,98838.99
2017-09-09T15:13:35.324Z,98834.63
2017-09-09T15:16:02.827Z,98837.96
2017-09-09T15:18:30.488Z,98841.79
2017-09-09T15:20:57.927Z,98842.47
2017-09-09T15:23:25.398Z,98838.34
2017-09-09T15:25:52.839Z,98840.33
2017-09-09T15:28:20.308Z,98832.20
2017-09-09T15:30:47.851Z,98848.73
2017-09-09T15:33:15.358Z,98841.73
2017-09-09T15:35:42.802Z,98839.12
2017-09-09T15:38:10.304Z,98833.36
2017-09-09T15:40:37.831Z,98833.12
2017-09-09T15:43:05.727Z,98825.62
2017-09-09T15:45:33.274Z,98841.30
2017-09-09T15:48:00.740Z,98836.95
2017-09-09T15:50:28.290Z,98840.60
2017-09-09T15:52:55.833Z,98845.05
2017-09-09T15:55:23.434Z,98841.39
2017-09-09T15:57:50.918Z,98842.30
2017-09-09T16:00:18.367Z,98838.16
2017-09-09T16:02:45.829Z,98843.09
2017-09-09T16:05:13.306Z,98843.80
2017-09-09T16:07:40.748Z,98859.47
2017-09-09T16:10:08.245Z,98868.59
2017-09-09T16:12:35.713Z,98864.27
2017-09-09T16:15:03.183Z,98868.34
2017-09-09T16:17:30.719Z,98873.80
2017-09-09T16:19:58.300Z,98860.65
2017-09-09T16:22:25.766Z,98856.34
2017-09-09T16:24:53.275Z,98851.94
2017-09-09T16:27:20.745Z,98852.33
2017-09-09T16:29:48.248Z,98852.55
2017-09-09T16:32:15.933Z,98849.29
2017-09-09T16:34:43.408Z,98861.80
2017-09-09T16:37:10.969Z,98857.47
2017-09-09T16:39:38.537Z,98852.05
2017-09-09T16:42:05.996Z,98844.86
2017-09-09T16:44:33.600Z,98852.89
2017-09-09T16:47:01.049Z,98846.99
2017-09-09T16:49:28.526Z,98847.31
2017-09-09T16:51:56.021Z,98850.52
2017-09-09T16:54:23.483Z,98857.58
2017-09-09T16:56:50.939Z,98871.56
2017-09-09T16:59:18.407Z,98868.39
2017-09-09T17:01:45.852Z,98868.50
2017-09-09T17:04:13.299Z,98865.67
2017-09-09T17:06:40.853Z,98857.33
2017-09-09T17:09:08.299Z,98860.02
2017-09-09T17:11:35.872Z,98860.41
2017-09-09T17:14:03.433Z,98869.22
2017-09-09T17:16:30.913Z,98869.18
2017-09-09T17:18:58.442Z,98874.03
2017-09-09T17:21:25.977Z,98861.86
2017-09-09T17:23:53.459Z,98873.71
2017-09-09T17:26:21.017Z,98878.04
2017-09-09T17:28:48.488Z,98869.28
2017-09-09T17:31:16.023Z,98880.57
2017-09-09T17:33:43.463Z,98881.72
2017-09-09T17:36:10.944Z,98880.20
2017-09-09T17:38:38.419Z,98886.67
2017-09-09T17:41:05.956Z,98893.56
2017-09-09T17:43:33.404Z,98895.68
2017-09-09T17:46:01.535Z,98897.84
2017-09-09T17:48:29.072Z,98904.91
2017-09-09T17:50:56.609Z,98911.97
2017-09-09T17:53:24.063Z,98916.39
2017-09-09T17:55:51.533Z,98930.62
2017-09-09T17:58:19.740Z,98933.36
2017-09-09T18:00:47.286Z,98916.70
2017-09-09T18:03:14.743Z,98923.61
2017-09-09T18:05:42.264Z,98933.49
2017-09-09T18:08:09.757Z,98921.16
2017-09-09T18:10:37.217Z,98930.11
2017-09-09T18:13:04.686Z,98934.16
2017-09-09T18:15:32.132Z,98944.04
2017-09-09T18:17:59.604Z,98948.39
2017-09-09T18:20:27.064Z,98950.52
2017-09-09T18:22:54.531Z,98953.21
2017-09-09T18:25:22.019Z,98960.73
2017-09-09T18:27:49.585Z,98959.08
2017-09-09T18:30:17.131Z,98958.05
2017-09-09T18:32:44.619Z,98966.72
2017-09-09T18:35:12.121Z,98971.07
2017-09-09T18:37:39.610Z,98972.34
2017-09-09T18:40:07.067Z,98971.73
2017-09-09T18:42:34.542Z,98976.86
2017-09-09T18:45:01.997Z,98978.58
2017-09-09T18:47:29.596Z,98987.31
2017-09-09T18:49:57.096Z,98995.63
2017-09-09T18:52:24.559Z,98990.31
2017-09-09T18:54:52.105Z,98994.47
2017-09-09T18:57:19.568Z,98986.53
2017-09-09T18:59:47.007Z,98992.06
2017-09-09T19:02:14.451Z,98993.86
2017-09-09T19:04:41.927Z,98990.08
2017-09-09T19:07:09.401Z,98999.20
2017-09-09T19:09:36.867Z,98996.57
2017-09-09T19:12:04.325Z,99008.48
2017-09-09T19:14:31.799Z,99002.19
2017-09-09T19:16:59.249Z,99007.52
2017-09-09T19:19:26.776Z,99013.34
2017-09-09T19:21:54.229Z,99019.21
2017-09-09T19:24:21.740Z,99016.95
2017-09-09T19:26:49.248Z,99023.48
2017-09-09T19:29:16.716Z,99023.13
2017-09-09T19:31:44.189Z,99030.77
2017-09-09T19:34:11.669Z,99033.50
2017-09-09T19:36:39.120Z,99033.73
2017-09-09T19:39:06.594Z,99031.06
2017-09-09T19:41:34.040Z,99031.84
2017-09-09T19:44:01.508Z,99034.70
2017-09-09T19:46:28.966Z,99030.27
2017-09-09T19:48:56.465Z,99027.52
2017-09-09T19:51:23.923Z,99034.64
2017-09-09T19:53:51.481Z,99037.50
2017-09-09T19:56:18.935Z,99044.30
2017-09-09T19:58:46.417Z,99052.47
2017-09-09T20:01:13.881Z,99046.88
2017-09-09T20:03:41.331Z,99046.57
2017-09-09T20:06:08.817Z,99045.31
2017-09-09T20:08:36.317Z,99042.38
2017-09-09T20:11:03.780Z,99042.81
2017-09-09T20:13:31.224Z,99040.35
2017-09-09T20:15:58.685Z,99033.84
2017-09-09T20:18:26.146Z,99037.41
2017-09-09T20:20:53.732Z,99028.65
2017-09-09T20:23:21.182Z,99034.13
2017-09-09T20:25:48.660Z,99036.09
2017-09-09T20:28:16.112Z,99047.13
2017-09-09T20:30:43.590Z,99047.13
2017-09-09T20:33:11.035Z,99058.23
2017-09-09T20:35:38.515Z,99052.44
2017-09-09T20:38:06.112Z,99058.25
2017-09-09T20:40:33.682Z,99053.26
2017-09-09T20:43:01.217Z,99052.28
2017-09-09T20:45:28.790Z,99048.58
2017-09-09T20:47:56.257Z,99057.84
2017-09-09T20:50:23.755Z,99059.59
2017-09-09T20:52:51.200Z,99059.14
2017-09-09T20:55:18.662Z,99044.75
2017-09-09T20:57:46.109Z,99038.47
2017-09-09T21:00:13.579Z,99038.62
2017-09-09T21:02:41.027Z,99043.66
2017-09-09T21:05:08.479Z,99046.30
2017-09-09T21:07:35.939Z,99049.72
2017-09-09T21:10:03.404Z,99047.97
2017-09-09T21:12:30.875Z,99046.72
2017-09-09T21:14:58.351Z,99052.15
2017-09-09T21:17:25.911Z,99052.39
2017-09-09T21:19:53.366Z,99056.22
2017-09-09T21:22:20.842Z,99054.16
2017-09-09T21:24:48.296Z,99062.14
2017-09-09T21:27:15.781Z,99068.11
2017-09-09T21:29:43.270Z,99073.70
2017-09-09T21:32:10.817Z,99074.81
2017-09-09T21:34:38.332Z,99082.12
2017-09-09T21:37:05.836Z,99084.78
2017-09-09T21:39:33.293Z,99090.86
2017-09-09T21:42:00.789Z,99085.27
2017-09-09T21:44:28.436Z,99083.74
2017-09-09T21:46:55.936Z,99084.85
2017-09-09T21:49:23.407Z,99093.81
2017-09-09T21:51:50.887Z,99091.66
2017-09-09T21:54:18.371Z,99096.53
2017-09-09T21:56:46.439Z,99089.19
2017-09-09T21:59:13.923Z,99084.75
2017-09-09T22:01:41.463Z,99088.86
2017-09-09T22:04:08.952Z,99086.47
2017-09-09T22:06:36.421Z,99084.64
2017-09-09T22:09:03.918Z,99092.91
2017-09-09T22:11:31.365Z,99092.97
2017-09-09T22:13:58.842Z,99098.28
2017-09-09T22:16:26.293Z,99094.28
2017-09-09T22:18:53.781Z,99095.95
2017-09-09T22:21:21.217Z,99103.10
2017-09-09T22:23:48.872Z,99105.44
2017-09-09T22:26:16.371Z,99108.06
2017-09-09T22:28:43.855Z,99109.28
2017-09-09T22:31:11.353Z,99107.89
2017-09-09T22:33:38.818Z,99106.56
2017-09-09T22:36:06.468Z,99113.50
2017-09-09T22:38:33.952Z,99108.16
2017-09-09T22:41:01.408Z,99111.30
2017-09-09T22:43:28.882Z,99108.70
2017-09-09T22:45:56.338Z,99102.52
2017-09-09T22:48:23.808Z,99111.55
2017-09-09T22:50:51.285Z,99110.55
2017-09-09T22:53:18.868Z,99112.70
2017-09-09T22:55:46.426Z,99114.59
2017-09-09T22:58:13.912Z,99114.00
2017-09-09T23:00:41.365Z,99108.96
2017-09-09T23:03:08.854Z,99110.56
2017-09-09T23:05:36.353Z,99110.63
2017-09-09T23:08:03.829Z,99118.89
2017-09-09T23:10:31.384Z,99116.45
2017-09-09T23:12:58.832Z,99117.13
2017-09-09T23:15:26.389Z,99117.52
2017-09-09T23:17:53.998Z,99125.33
2017-09-09T23:20:21.479Z,99125.55
2017-09-09T23:22:48.936Z,99120.70
2017-09-09T23:25:16.400Z,99124.80
2017-09-09T23:27:43.858Z,99128.36
2017-09-09T23:30:11.340Z,99131.03
2017-09-09T23:32:38.797Z,99123.95
2017-09-09T23:35:06.278Z,99125.20
2017-09-09T23:37:33.751Z,99125.42
2017-09-09T23:40:01.219Z,99125.36
2017-09-09T23:42:28.675Z,99128.95
2017-09-09T23:44:56.185Z,99136.61
2017-09-09T23:47:23.636Z,99133.83
2017-09-09T23:49:51.218Z,99135.45
2017-09-09T23:52:18.744Z,99136.66
2017-09-09T23:54:46.303Z,99136.80
2017-09-09T23:57:13.868Z,99136.97
2017-09-09T23:59:41.352Z,99139.72
